sensor_id;sensor_type;location;lat;lon;timestamp;pressure;altitude;pressure_sealevel;temperature
12854;BMP180;6495;51.808;7.478;2023-02-13T00:01:32;103216.00;;;9.40
12854;BMP180;6495;51.808;7.478;2023-02-13T00:04:11;103215.00;;;9.30
12854;BMP180;6495;51.808;7.478;2023-02-13T00:07:03;103218.00;;;9.40
12854;BMP180;6495;51.808;7.478;2023-02-13T00:09:48;103214.00;;;9.30
12854;BMP180;6495;51.808;7.478;2023-02-13T00:12:43;103208.00;;;9.40
12854;BMP180;6495;51.808;7.478;2023-02-13T00:15:43;103205.00;;;9.40
12854;BMP180;6495;51.808;7.478;2023-02-13T00:18:31;103211.00;;;9.30
12854;BMP180;6495;51.808;7.478;2023-02-13T00:21:25;103208.00;;;9.30
12854;BMP180;6495;51.808;7.478;2023-02-13T00:24:36;103209.00;;;9.20
12854;BMP180;6495;51.808;7.478;2023-02-13T00:27:33;103206.00;;;9.20
12854;BMP180;6495;51.808;7.478;2023-02-13T00:30:20;103205.00;;;9.20
12854;BMP180;6495;51.808;7.478;2023-02-13T00:32:57;103202.00;;;9.20
12854;BMP180;6495;51.808;7.478;2023-02-13T00:36:14;103204.00;;;9.20
12854;BMP180;6495;51.808;7.478;2023-02-13T00:38:50;103195.00;;;9.00
12854;BMP180;6495;51.808;7.478;2023-02-13T00:41:32;103196.00;;;9.00
12854;BMP180;6495;51.808;7.478;2023-02-13T00:44:07;103203.00;;;9.10
12854;BMP180;6495;51.808;7.478;2023-02-13T00:46:54;103196.00;;;9.00
12854;BMP180;6495;51.808;7.478;2023-02-13T00:49:46;103195.00;;;9.00
12854;BMP180;6495;51.808;7.478;2023-02-13T00:52:44;103187.00;;;9.00
12854;BMP180;6495;51.808;7.478;2023-02-13T00:55:44;103191.00;;;9.00
12854;BMP180;6495;51.808;7.478;2023-02-13T00:58:25;103205.00;;;9.00
12854;BMP180;6495;51.808;7.478;2023-02-13T01:01:36;103198.00;;;9.00
12854;BMP180;6495;51.808;7.478;2023-02-13T01:04:27;103204.00;;;9.00
12854;BMP180;6495;51.808;7.478;2023-02-13T01:07:08;103209.00;;;9.00
12854;BMP180;6495;51.808;7.478;2023-02-13T01:10:05;103209.00;;;9.00
12854;BMP180;6495;51.808;7.478;2023-02-13T01:13:09;103194.00;;;9.00
12854;BMP180;6495;51.808;7.478;2023-02-13T01:16:07;103196.00;;;9.00
12854;BMP180;6495;51.808;7.478;2023-02-13T01:18:48;103185.00;;;8.90
12854;BMP180;6495;51.808;7.478;2023-02-13T01:21:34;103194.00;;;8.90
12854;BMP180;6495;51.808;7.478;2023-02-13T01:24:13;103188.00;;;8.90
12854;BMP180;6495;51.808;7.478;2023-02-13T01:30:52;103194.00;;;8.90
12854;BMP180;6495;51.808;7.478;2023-02-13T01:33:49;103192.00;;;8.90
12854;BMP180;6495;51.808;7.478;2023-02-13T01:36:46;103196.00;;;8.90
12854;BMP180;6495;51.808;7.478;2023-02-13T01:39:51;103187.00;;;8.90
12854;BMP180;6495;51.808;7.478;2023-02-13T01:42:55;103185.00;;;8.90
12854;BMP180;6495;51.808;7.478;2023-02-13T01:45:47;103179.00;;;8.80
12854;BMP180;6495;51.808;7.478;2023-02-13T01:48:27;103181.00;;;8.80
12854;BMP180;6495;51.808;7.478;2023-02-13T01:51:36;103182.00;;;8.90
12854;BMP180;6495;51.808;7.478;2023-02-13T01:55:25;103183.00;;;8.90
12854;BMP180;6495;51.808;7.478;2023-02-13T01:58:23;103175.00;;;8.80
12854;BMP180;6495;51.808;7.478;2023-02-13T02:01:08;103177.00;;;8.80
12854;BMP180;6495;51.808;7.478;2023-02-13T02:03:54;103169.00;;;8.80
12854;BMP180;6495;51.808;7.478;2023-02-13T02:07:17;103172.00;;;8.80
12854;BMP180;6495;51.808;7.478;2023-02-13T02:10:25;103171.00;;;8.80
12854;BMP180;6495;51.808;7.478;2023-02-13T02:13:45;103159.00;;;8.80
12854;BMP180;6495;51.808;7.478;2023-02-13T02:16:39;103164.00;;;8.80
12854;BMP180;6495;51.808;7.478;2023-02-13T02:19:39;103161.00;;;8.80
12854;BMP180;6495;51.808;7.478;2023-02-13T02:25:15;103151.00;;;8.80
12854;BMP180;6495;51.808;7.478;2023-02-13T02:28:45;103157.00;;;8.70
12854;BMP180;6495;51.808;7.478;2023-02-13T02:30:49;103151.00;;;8.70
12854;BMP180;6495;51.808;7.478;2023-02-13T02:34:17;103141.00;;;8.70
12854;BMP180;6495;51.808;7.478;2023-02-13T02:37:16;103154.00;;;8.70
12854;BMP180;6495;51.808;7.478;2023-02-13T02:40:12;103143.00;;;8.70
12854;BMP180;6495;51.808;7.478;2023-02-13T02:43:32;103142.00;;;8.70
12854;BMP180;6495;51.808;7.478;2023-02-13T02:46:30;103145.00;;;8.70
12854;BMP180;6495;51.808;7.478;2023-02-13T02:49:15;103144.00;;;8.70
12854;BMP180;6495;51.808;7.478;2023-02-13T02:52:17;103145.00;;;8.70
12854;BMP180;6495;51.808;7.478;2023-02-13T02:55:49;103145.00;;;8.70
12854;BMP180;6495;51.808;7.478;2023-02-13T02:58:21;103145.00;;;8.70
12854;BMP180;6495;51.808;7.478;2023-02-13T03:01:18;103137.00;;;8.70
12854;BMP180;6495;51.808;7.478;2023-02-13T03:04:22;103146.00;;;8.70
12854;BMP180;6495;51.808;7.478;2023-02-13T03:07:32;103144.00;;;8.70
12854;BMP180;6495;51.808;7.478;2023-02-13T03:10:34;103147.00;;;8.80
12854;BMP180;6495;51.808;7.478;2023-02-13T03:13:44;103142.00;;;8.80
12854;BMP180;6495;51.808;7.478;2023-02-13T03:16:39;103137.00;;;8.80
12854;BMP180;6495;51.808;7.478;2023-02-13T03:19:41;103142.00;;;8.70
12854;BMP180;6495;51.808;7.478;2023-02-13T03:22:59;103143.00;;;8.70
12854;BMP180;6495;51.808;7.478;2023-02-13T03:26:40;103147.00;;;8.80
12854;BMP180;6495;51.808;7.478;2023-02-13T03:29:41;103143.00;;;8.80
12854;BMP180;6495;51.808;7.478;2023-02-13T03:32:45;103141.00;;;8.70
12854;BMP180;6495;51.808;7.478;2023-02-13T03:35:44;103141.00;;;8.70
12854;BMP180;6495;51.808;7.478;2023-02-13T03:39:02;103143.00;;;8.70
12854;BMP180;6495;51.808;7.478;2023-02-13T03:41:59;103151.00;;;8.70
12854;BMP180;6495;51.808;7.478;2023-02-13T03:44:48;103143.00;;;8.60
12854;BMP180;6495;51.808;7.478;2023-02-13T03:47:50;103154.00;;;8.60
12854;BMP180;6495;51.808;7.478;2023-02-13T03:50:28;103151.00;;;8.50
12854;BMP180;6495;51.808;7.478;2023-02-13T03:53:20;103160.00;;;8.40
12854;BMP180;6495;51.808;7.478;2023-02-13T03:56:28;103152.00;;;8.40
12854;BMP180;6495;51.808;7.478;2023-02-13T03:59:35;103148.00;;;8.30
12854;BMP180;6495;51.808;7.478;2023-02-13T04:02:13;103153.00;;;8.40
12854;BMP180;6495;51.808;7.478;2023-02-13T04:05:07;103151.00;;;8.40
12854;BMP180;6495;51.808;7.478;2023-02-13T04:07:49;103157.00;;;8.40
12854;BMP180;6495;51.808;7.478;2023-02-13T04:10:26;103161.00;;;8.50
12854;BMP180;6495;51.808;7.478;2023-02-13T04:13:19;103158.00;;;8.50
12854;BMP180;6495;51.808;7.478;2023-02-13T04:16:22;103159.00;;;8.50
12854;BMP180;6495;51.808;7.478;2023-02-13T04:19:38;103156.00;;;8.50
12854;BMP180;6495;51.808;7.478;2023-02-13T04:22:47;103154.00;;;8.50
12854;BMP180;6495;51.808;7.478;2023-02-13T04:25:43;103144.00;;;8.50
12854;BMP180;6495;51.808;7.478;2023-02-13T04:28:57;103155.00;;;8.60
12854;BMP180;6495;51.808;7.478;2023-02-13T04:32:12;103156.00;;;8.60
12854;BMP180;6495;51.808;7.478;2023-02-13T04:34:46;103160.00;;;8.50
12854;BMP180;6495;51.808;7.478;2023-02-13T04:37:39;103154.00;;;8.50
12854;BMP180;6495;51.808;7.478;2023-02-13T04:40:17;103159.00;;;8.50
12854;BMP180;6495;51.808;7.478;2023-02-13T04:43:03;103153.00;;;8.60
12854;BMP180;6495;51.808;7.478;2023-02-13T04:50:40;103162.00;;;8.60
12854;BMP180;6495;51.808;7.478;2023-02-13T04:53:22;103156.00;;;8.60
12854;BMP180;6495;51.808;7.478;2023-02-13T04:56:23;103157.00;;;8.70
12854;BMP180;6495;51.808;7.478;2023-02-13T04:59:16;103145.00;;;8.70
12854;BMP180;6495;51.808;7.478;2023-02-13T05:01:54;103151.00;;;8.70
12854;BMP180;6495;51.808;7.478;2023-02-13T05:04:46;103157.00;;;8.60
12854;BMP180;6495;51.808;7.478;2023-02-13T05:07:29;103152.00;;;8.60
12854;BMP180;6495;51.808;7.478;2023-02-13T05:17:06;103125.00;;;8.60
12854;BMP180;6495;51.808;7.478;2023-02-13T05:19:46;103132.00;;;8.50
12854;BMP180;6495;51.808;7.478;2023-02-13T05:22:23;103137.00;;;8.40
12854;BMP180;6495;51.808;7.478;2023-02-13T05:25:09;103142.00;;;8.40
12854;BMP180;6495;51.808;7.478;2023-02-13T05:27:37;103134.00;;;8.40
12854;BMP180;6495;51.808;7.478;2023-02-13T05:30:06;103138.00;;;8.40
12854;BMP180;6495;51.808;7.478;2023-02-13T05:32:36;103139.00;;;8.30
12854;BMP180;6495;51.808;7.478;2023-02-13T05:35:05;103144.00;;;8.30
12854;BMP180;6495;51.808;7.478;2023-02-13T05:37:33;103140.00;;;8.40
12854;BMP180;6495;51.808;7.478;2023-02-13T05:40:01;103151.00;;;8.50
12854;BMP180;6495;51.808;7.478;2023-02-13T05:42:30;103144.00;;;8.50
12854;BMP180;6495;51.808;7.478;2023-02-13T05:44:59;103143.00;;;8.50
12854;BMP180;6495;51.808;7.478;2023-02-13T05:47:27;103138.00;;;8.50
12854;BMP180;6495;51.808;7.478;2023-02-13T05:49:57;103145.00;;;8.50
12854;BMP180;6495;51.808;7.478;2023-02-13T05:52:26;103138.00;;;8.40
12854;BMP180;6495;51.808;7.478;2023-02-13T05:54:54;103142.00;;;8.40
12854;BMP180;6495;51.808;7.478;2023-02-13T05:57:22;103147.00;;;8.40
12854;BMP180;6495;51.808;7.478;2023-02-13T05:59:51;103142.00;;;8.40
12854;BMP180;6495;51.808;7.478;2023-02-13T06:02:19;103152.00;;;8.50
12854;BMP180;6495;51.808;7.478;2023-02-13T06:04:47;103152.00;;;8.50
12854;BMP180;6495;51.808;7.478;2023-02-13T06:07:17;103158.00;;;8.40
12854;BMP180;6495;51.808;7.478;2023-02-13T06:09:45;103148.00;;;8.40
12854;BMP180;6495;51.808;7.478;2023-02-13T06:12:14;103148.00;;;8.40
12854;BMP180;6495;51.808;7.478;2023-02-13T06:14:42;103152.00;;;8.40
12854;BMP180;6495;51.808;7.478;2023-02-13T06:17:10;103153.00;;;8.30
12854;BMP180;6495;51.808;7.478;2023-02-13T06:19:39;103155.00;;;8.30
12854;BMP180;6495;51.808;7.478;2023-02-13T06:22:07;103160.00;;;8.30
12854;BMP180;6495;51.808;7.478;2023-02-13T06:24:37;103162.00;;;8.20
12854;BMP180;6495;51.808;7.478;2023-02-13T06:27:05;103164.00;;;8.20
12854;BMP180;6495;51.808;7.478;2023-02-13T06:29:33;103156.00;;;8.20
12854;BMP180;6495;51.808;7.478;2023-02-13T06:32:02;103166.00;;;8.20
12854;BMP180;6495;51.808;7.478;2023-02-13T06:34:30;103162.00;;;8.10
12854;BMP180;6495;51.808;7.478;2023-02-13T06:36:58;103165.00;;;8.10
12854;BMP180;6495;51.808;7.478;2023-02-13T06:39:27;103175.00;;;8.20
12854;BMP180;6495;51.808;7.478;2023-02-13T06:41:56;103164.00;;;8.20
12854;BMP180;6495;51.808;7.478;2023-02-13T06:44:25;103168.00;;;8.30
12854;BMP180;6495;51.808;7.478;2023-02-13T06:46:53;103161.00;;;8.30
12854;BMP180;6495;51.808;7.478;2023-02-13T06:49:21;103167.00;;;8.30
12854;BMP180;6495;51.808;7.478;2023-02-13T06:51:50;103163.00;;;8.40
12854;BMP180;6495;51.808;7.478;2023-02-13T06:54:20;103170.00;;;8.40
12854;BMP180;6495;51.808;7.478;2023-02-13T06:57:12;103180.00;;;8.40
12854;BMP180;6495;51.808;7.478;2023-02-13T06:59:40;103181.00;;;8.40
12854;BMP180;6495;51.808;7.478;2023-02-13T07:02:09;103184.00;;;8.50
12854;BMP180;6495;51.808;7.478;2023-02-13T07:04:38;103182.00;;;8.50
12854;BMP180;6495;51.808;7.478;2023-02-13T07:07:06;103190.00;;;8.50
12854;BMP180;6495;51.808;7.478;2023-02-13T07:09:35;103195.00;;;8.50
12854;BMP180;6495;51.808;7.478;2023-02-13T07:12:04;103182.00;;;8.60
12854;BMP180;6495;51.808;7.478;2023-02-13T07:14:34;103191.00;;;8.60
12854;BMP180;6495;51.808;7.478;2023-02-13T07:17:04;103196.00;;;8.60
12854;BMP180;6495;51.808;7.478;2023-02-13T07:19:32;103192.00;;;8.50
12854;BMP180;6495;51.808;7.478;2023-02-13T07:22:01;103197.00;;;8.60
12854;BMP180;6495;51.808;7.478;2023-02-13T07:24:29;103193.00;;;8.60
12854;BMP180;6495;51.808;7.478;2023-02-13T07:26:59;103204.00;;;8.60
12854;BMP180;6495;51.808;7.478;2023-02-13T07:29:28;103199.00;;;8.70
12854;BMP180;6495;51.808;7.478;2023-02-13T07:31:57;103196.00;;;8.70
12854;BMP180;6495;51.808;7.478;2023-02-13T07:34:26;103208.00;;;8.70
12854;BMP180;6495;51.808;7.478;2023-02-13T07:36:54;103196.00;;;8.70
12854;BMP180;6495;51.808;7.478;2023-02-13T07:39:23;103200.00;;;8.70
12854;BMP180;6495;51.808;7.478;2023-02-13T07:41:51;103200.00;;;8.70
12854;BMP180;6495;51.808;7.478;2023-02-13T07:44:24;103203.00;;;8.80
12854;BMP180;6495;51.808;7.478;2023-02-13T07:46:53;103195.00;;;8.80
12854;BMP180;6495;51.808;7.478;2023-02-13T07:49:23;103203.00;;;8.80
12854;BMP180;6495;51.808;7.478;2023-02-13T07:51:52;103208.00;;;8.80
12854;BMP180;6495;51.808;7.478;2023-02-13T07:54:22;103203.00;;;8.90
12854;BMP180;6495;51.808;7.478;2023-02-13T07:56:51;103209.00;;;8.90
12854;BMP180;6495;51.808;7.478;2023-02-13T07:59:19;103211.00;;;8.90
12854;BMP180;6495;51.808;7.478;2023-02-13T08:01:48;103212.00;;;8.90
12854;BMP180;6495;51.808;7.478;2023-02-13T08:04:16;103212.00;;;8.90
12854;BMP180;6495;51.808;7.478;2023-02-13T08:06:46;103215.00;;;8.90
12854;BMP180;6495;51.808;7.478;2023-02-13T08:09:19;103210.00;;;8.90
12854;BMP180;6495;51.808;7.478;2023-02-13T08:12:08;103219.00;;;8.80
12854;BMP180;6495;51.808;7.478;2023-02-13T08:14:37;103221.00;;;8.80
12854;BMP180;6495;51.808;7.478;2023-02-13T08:17:06;103222.00;;;8.80
12854;BMP180;6495;51.808;7.478;2023-02-13T08:19:34;103221.00;;;8.80
12854;BMP180;6495;51.808;7.478;2023-02-13T08:22:04;103221.00;;;8.80
12854;BMP180;6495;51.808;7.478;2023-02-13T08:24:33;103213.00;;;8.80
12854;BMP180;6495;51.808;7.478;2023-02-13T08:27:01;103224.00;;;8.80
12854;BMP180;6495;51.808;7.478;2023-02-13T08:29:29;103219.00;;;8.90
12854;BMP180;6495;51.808;7.478;2023-02-13T08:31:58;103225.00;;;8.90
12854;BMP180;6495;51.808;7.478;2023-02-13T08:34:26;103217.00;;;8.90
12854;BMP180;6495;51.808;7.478;2023-02-13T08:36:55;103219.00;;;8.90
12854;BMP180;6495;51.808;7.478;2023-02-13T08:39:24;103217.00;;;8.90
12854;BMP180;6495;51.808;7.478;2023-02-13T08:41:53;103212.00;;;8.90
12854;BMP180;6495;51.808;7.478;2023-02-13T08:44:21;103205.00;;;8.90
12854;BMP180;6495;51.808;7.478;2023-02-13T08:46:49;103217.00;;;8.90
12854;BMP180;6495;51.808;7.478;2023-02-13T08:49:19;103203.00;;;8.90
12854;BMP180;6495;51.808;7.478;2023-02-13T08:51:49;103213.00;;;8.90
12854;BMP180;6495;51.808;7.478;2023-02-13T08:54:18;103213.00;;;8.90
12854;BMP180;6495;51.808;7.478;2023-02-13T08:56:47;103215.00;;;8.90
12854;BMP180;6495;51.808;7.478;2023-02-13T08:59:16;103220.00;;;8.90
12854;BMP180;6495;51.808;7.478;2023-02-13T09:01:44;103218.00;;;8.90
12854;BMP180;6495;51.808;7.478;2023-02-13T09:04:13;103216.00;;;8.90
12854;BMP180;6495;51.808;7.478;2023-02-13T09:06:44;103213.00;;;8.90
12854;BMP180;6495;51.808;7.478;2023-02-13T09:09:12;103208.00;;;8.90
12854;BMP180;6495;51.808;7.478;2023-02-13T09:11:42;103211.00;;;8.90
12854;BMP180;6495;51.808;7.478;2023-02-13T09:14:11;103204.00;;;8.90
12854;BMP180;6495;51.808;7.478;2023-02-13T09:16:40;103215.00;;;9.00
12854;BMP180;6495;51.808;7.478;2023-02-13T09:19:09;103209.00;;;9.10
12854;BMP180;6495;51.808;7.478;2023-02-13T09:21:37;103206.00;;;9.10
12854;BMP180;6495;51.808;7.478;2023-02-13T09:24:07;103213.00;;;9.20
12854;BMP180;6495;51.808;7.478;2023-02-13T09:26:36;103216.00;;;9.20
12854;BMP180;6495;51.808;7.478;2023-02-13T09:29:04;103213.00;;;9.20
12854;BMP180;6495;51.808;7.478;2023-02-13T09:31:35;103213.00;;;9.20
12854;BMP180;6495;51.808;7.478;2023-02-13T09:34:04;103217.00;;;9.20
12854;BMP180;6495;51.808;7.478;2023-02-13T09:36:32;103215.00;;;9.30
12854;BMP180;6495;51.808;7.478;2023-02-13T09:39:02;103216.00;;;9.20
12854;BMP180;6495;51.808;7.478;2023-02-13T09:41:35;103226.00;;;9.20
12854;BMP180;6495;51.808;7.478;2023-02-13T09:44:09;103225.00;;;9.20
12854;BMP180;6495;51.808;7.478;2023-02-13T09:47:06;103232.00;;;9.30
12854;BMP180;6495;51.808;7.478;2023-02-13T09:49:43;103227.00;;;9.40
12854;BMP180;6495;51.808;7.478;2023-02-13T09:52:13;103225.00;;;9.40
12854;BMP180;6495;51.808;7.478;2023-02-13T09:54:42;103232.00;;;9.50
12854;BMP180;6495;51.808;7.478;2023-02-13T09:57:19;103224.00;;;9.50
12854;BMP180;6495;51.808;7.478;2023-02-13T10:00:03;103222.00;;;9.60
12854;BMP180;6495;51.808;7.478;2023-02-13T10:03:10;103221.00;;;9.60
12854;BMP180;6495;51.808;7.478;2023-02-13T10:05:52;103225.00;;;9.70
12854;BMP180;6495;51.808;7.478;2023-02-13T10:08:40;103225.00;;;9.90
12854;BMP180;6495;51.808;7.478;2023-02-13T10:11:35;103227.00;;;10.00
12854;BMP180;6495;51.808;7.478;2023-02-13T10:14:15;103224.00;;;9.90
12854;BMP180;6495;51.808;7.478;2023-02-13T10:16:49;103230.00;;;10.00
12854;BMP180;6495;51.808;7.478;2023-02-13T10:19:34;103221.00;;;9.90
12854;BMP180;6495;51.808;7.478;2023-02-13T10:22:09;103230.00;;;10.00
12854;BMP180;6495;51.808;7.478;2023-02-13T10:24:45;103220.00;;;10.10
12854;BMP180;6495;51.808;7.478;2023-02-13T10:27:23;103231.00;;;10.30
12854;BMP180;6495;51.808;7.478;2023-02-13T10:29:56;103231.00;;;10.40
12854;BMP180;6495;51.808;7.478;2023-02-13T10:32:52;103232.00;;;10.60
12854;BMP180;6495;51.808;7.478;2023-02-13T10:35:39;103229.00;;;10.60
12854;BMP180;6495;51.808;7.478;2023-02-13T10:38:15;103231.00;;;10.60
12854;BMP180;6495;51.808;7.478;2023-02-13T10:41:04;103226.00;;;10.80
12854;BMP180;6495;51.808;7.478;2023-02-13T10:43:46;103234.00;;;11.10
12854;BMP180;6495;51.808;7.478;2023-02-13T10:46:27;103231.00;;;11.30
12854;BMP180;6495;51.808;7.478;2023-02-13T10:49:30;103234.00;;;11.40
12854;BMP180;6495;51.808;7.478;2023-02-13T10:52:17;103235.00;;;11.50
12854;BMP180;6495;51.808;7.478;2023-02-13T10:55:13;103236.00;;;11.60
12854;BMP180;6495;51.808;7.478;2023-02-13T10:58:03;103229.00;;;11.80
12854;BMP180;6495;51.808;7.478;2023-02-13T11:00:40;103231.00;;;11.80
12854;BMP180;6495;51.808;7.478;2023-02-13T11:03:19;103226.00;;;11.80
12854;BMP180;6495;51.808;7.478;2023-02-13T11:05:49;103224.00;;;12.00
12854;BMP180;6495;51.808;7.478;2023-02-13T11:08:23;103212.00;;;12.10
12854;BMP180;6495;51.808;7.478;2023-02-13T11:10:52;103214.00;;;11.90
12854;BMP180;6495;51.808;7.478;2023-02-13T11:13:23;103204.00;;;11.80
12854;BMP180;6495;51.808;7.478;2023-02-13T11:16:00;103199.00;;;12.00
12854;BMP180;6495;51.808;7.478;2023-02-13T11:28:09;103199.00;;;12.40
12854;BMP180;6495;51.808;7.478;2023-02-13T11:30:43;103192.00;;;12.40
12854;BMP180;6495;51.808;7.478;2023-02-13T11:33:23;103194.00;;;12.40
12854;BMP180;6495;51.808;7.478;2023-02-13T11:36:05;103188.00;;;12.60
12854;BMP180;6495;51.808;7.478;2023-02-13T11:38:34;103190.00;;;12.70
12854;BMP180;6495;51.808;7.478;2023-02-13T11:41:07;103186.00;;;12.70
12854;BMP180;6495;51.808;7.478;2023-02-13T11:43:46;103180.00;;;12.80
12854;BMP180;6495;51.808;7.478;2023-02-13T11:46:19;103181.00;;;12.60
12854;BMP180;6495;51.808;7.478;2023-02-13T11:49:00;103182.00;;;12.70
12854;BMP180;6495;51.808;7.478;2023-02-13T11:51:39;103189.00;;;13.00
12854;BMP180;6495;51.808;7.478;2023-02-13T11:54:30;103186.00;;;13.10
12854;BMP180;6495;51.808;7.478;2023-02-13T11:57:20;103187.00;;;12.90
12854;BMP180;6495;51.808;7.478;2023-02-13T12:00:30;103175.00;;;13.00
12854;BMP180;6495;51.808;7.478;2023-02-13T12:03:29;103169.00;;;13.00
12854;BMP180;6495;51.808;7.478;2023-02-13T12:06:40;103170.00;;;13.00
12854;BMP180;6495;51.808;7.478;2023-02-13T12:09:20;103161.00;;;13.10
12854;BMP180;6495;51.808;7.478;2023-02-13T12:15:03;103156.00;;;13.00
12854;BMP180;6495;51.808;7.478;2023-02-13T12:18:09;103157.00;;;12.80
12854;BMP180;6495;51.808;7.478;2023-02-13T12:21:30;103152.00;;;12.90
12854;BMP180;6495;51.808;7.478;2023-02-13T12:24:20;103152.00;;;13.00
12854;BMP180;6495;51.808;7.478;2023-02-13T12:27:06;103148.00;;;13.00
12854;BMP180;6495;51.808;7.478;2023-02-13T12:30:14;103143.00;;;13.10
12854;BMP180;6495;51.808;7.478;2023-02-13T12:32:59;103137.00;;;13.10
12854;BMP180;6495;51.808;7.478;2023-02-13T12:35:52;103138.00;;;13.20
12854;BMP180;6495;51.808;7.478;2023-02-13T12:38:42;103130.00;;;12.90
12854;BMP180;6495;51.808;7.478;2023-02-13T12:41:19;103132.00;;;12.70
12854;BMP180;6495;51.808;7.478;2023-02-13T12:44:34;103140.00;;;12.90
12854;BMP180;6495;51.808;7.478;2023-02-13T12:47:15;103128.00;;;13.00
12854;BMP180;6495;51.808;7.478;2023-02-13T12:50:21;103137.00;;;13.00
12854;BMP180;6495;51.808;7.478;2023-02-13T12:53:38;103137.00;;;12.90
12854;BMP180;6495;51.808;7.478;2023-02-13T12:59:56;103122.00;;;12.90
12854;BMP180;6495;51.808;7.478;2023-02-13T13:03:02;103116.00;;;12.90
12854;BMP180;6495;51.808;7.478;2023-02-13T13:06:22;103116.00;;;13.00
12854;BMP180;6495;51.808;7.478;2023-02-13T13:13:41;103102.00;;;12.80
12854;BMP180;6495;51.808;7.478;2023-02-13T13:16:46;103093.00;;;12.50
12854;BMP180;6495;51.808;7.478;2023-02-13T13:24:20;103094.00;;;12.40
12854;BMP180;6495;51.808;7.478;2023-02-13T13:27:43;103090.00;;;12.40
12854;BMP180;6495;51.808;7.478;2023-02-13T13:30:40;103090.00;;;12.40
12854;BMP180;6495;51.808;7.478;2023-02-13T13:33:24;103090.00;;;12.50
12854;BMP180;6495;51.808;7.478;2023-02-13T13:36:08;103084.00;;;12.50
12854;BMP180;6495;51.808;7.478;2023-02-13T13:39:45;103087.00;;;12.50
12854;BMP180;6495;51.808;7.478;2023-02-13T13:42:45;103086.00;;;12.40
12854;BMP180;6495;51.808;7.478;2023-02-13T13:46:20;103079.00;;;12.30
12854;BMP180;6495;51.808;7.478;2023-02-13T13:49:15;103081.00;;;12.10
12854;BMP180;6495;51.808;7.478;2023-02-13T13:52:34;103077.00;;;12.20
12854;BMP180;6495;51.808;7.478;2023-02-13T13:59:24;103068.00;;;12.20
12854;BMP180;6495;51.808;7.478;2023-02-13T14:06:05;103069.00;;;12.20
12854;BMP180;6495;51.808;7.478;2023-02-13T14:11:45;103055.00;;;12.20
12854;BMP180;6495;51.808;7.478;2023-02-13T14:14:57;103064.00;;;12.20
12854;BMP180;6495;51.808;7.478;2023-02-13T14:32:51;103067.00;;;12.10
12854;BMP180;6495;51.808;7.478;2023-02-13T14:35:27;103053.00;;;12.10
12854;BMP180;6495;51.808;7.478;2023-02-13T14:37:59;103048.00;;;12.10
12854;BMP180;6495;51.808;7.478;2023-02-13T14:40:47;103046.00;;;12.10
12854;BMP180;6495;51.808;7.478;2023-02-13T14:43:36;103045.00;;;12.10
12854;BMP180;6495;51.808;7.478;2023-02-13T14:46:28;103049.00;;;12.10
12854;BMP180;6495;51.808;7.478;2023-02-13T14:55:03;103033.00;;;12.00
12854;BMP180;6495;51.808;7.478;2023-02-13T14:58:42;103031.00;;;12.00
12854;BMP180;6495;51.808;7.478;2023-02-13T15:01:31;103027.00;;;12.10
12854;BMP180;6495;51.808;7.478;2023-02-13T15:17:49;103014.00;;;12.00
12854;BMP180;6495;51.808;7.478;2023-02-13T15:43:33;103012.00;;;11.90
12854;BMP180;6495;51.808;7.478;2023-02-13T15:46:24;103015.00;;;11.90
12854;BMP180;6495;51.808;7.478;2023-02-13T15:48:57;103012.00;;;11.90
12854;BMP180;6495;51.808;7.478;2023-02-13T15:51:29;103010.00;;;11.80
12854;BMP180;6495;51.808;7.478;2023-02-13T15:54:01;103006.00;;;11.80
12854;BMP180;6495;51.808;7.478;2023-02-13T15:56:31;103012.00;;;11.80
12854;BMP180;6495;51.808;7.478;2023-02-13T15:59:03;103003.00;;;11.80
12854;BMP180;6495;51.808;7.478;2023-02-13T16:01:32;103007.00;;;11.80
12854;BMP180;6495;51.808;7.478;2023-02-13T16:04:05;102998.00;;;11.80
12854;BMP180;6495;51.808;7.478;2023-02-13T16:06:36;103008.00;;;11.80
12854;BMP180;6495;51.808;7.478;2023-02-13T16:09:04;103007.00;;;11.70
12854;BMP180;6495;51.808;7.478;2023-02-13T16:11:34;103011.00;;;11.70
12854;BMP180;6495;51.808;7.478;2023-02-13T16:14:14;103003.00;;;11.60
12854;BMP180;6495;51.808;7.478;2023-02-13T16:16:53;103004.00;;;11.50
12854;BMP180;6495;51.808;7.478;2023-02-13T16:19:28;103002.00;;;11.50
12854;BMP180;6495;51.808;7.478;2023-02-13T16:22:05;102995.00;;;11.60
12854;BMP180;6495;51.808;7.478;2023-02-13T16:24:35;102993.00;;;11.60
12854;BMP180;6495;51.808;7.478;2023-02-13T16:27:12;102985.00;;;11.60
12854;BMP180;6495;51.808;7.478;2023-02-13T16:30:14;102988.00;;;11.60
12854;BMP180;6495;51.808;7.478;2023-02-13T16:32:50;102988.00;;;11.50
12854;BMP180;6495;51.808;7.478;2023-02-13T16:35:33;102984.00;;;11.60
12854;BMP180;6495;51.808;7.478;2023-02-13T16:38:26;102985.00;;;11.60
12854;BMP180;6495;51.808;7.478;2023-02-13T16:40:56;102990.00;;;11.50
12854;BMP180;6495;51.808;7.478;2023-02-13T16:43:42;102986.00;;;11.50
12854;BMP180;6495;51.808;7.478;2023-02-13T16:46:30;102980.00;;;11.50
12854;BMP180;6495;51.808;7.478;2023-02-13T16:49:24;102996.00;;;11.50
12854;BMP180;6495;51.808;7.478;2023-02-13T16:52:09;102990.00;;;11.40
12854;BMP180;6495;51.808;7.478;2023-02-13T16:54:49;103002.00;;;11.30
12854;BMP180;6495;51.808;7.478;2023-02-13T16:57:23;103000.00;;;11.30
12854;BMP180;6495;51.808;7.478;2023-02-13T16:59:57;103000.00;;;11.20
12854;BMP180;6495;51.808;7.478;2023-02-13T17:02:28;103010.00;;;11.20
12854;BMP180;6495;51.808;7.478;2023-02-13T17:05:14;103012.00;;;11.20
12854;BMP180;6495;51.808;7.478;2023-02-13T17:07:45;103007.00;;;11.20
12854;BMP180;6495;51.808;7.478;2023-02-13T17:10:20;103013.00;;;11.20
12854;BMP180;6495;51.808;7.478;2023-02-13T17:12:50;103018.00;;;11.10
12854;BMP180;6495;51.808;7.478;2023-02-13T17:15:21;103016.00;;;11.10
12854;BMP180;6495;51.808;7.478;2023-02-13T17:17:51;103012.00;;;11.00
12854;BMP180;6495;51.808;7.478;2023-02-13T17:20:22;103008.00;;;10.90
12854;BMP180;6495;51.808;7.478;2023-02-13T17:22:53;103017.00;;;10.80
12854;BMP180;6495;51.808;7.478;2023-02-13T17:25:24;103014.00;;;10.80
12854;BMP180;6495;51.808;7.478;2023-02-13T17:27:55;103007.00;;;10.70
12854;BMP180;6495;51.808;7.478;2023-02-13T17:30:26;103014.00;;;10.70
12854;BMP180;6495;51.808;7.478;2023-02-13T17:32:59;103013.00;;;10.70
12854;BMP180;6495;51.808;7.478;2023-02-13T17:35:32;103024.00;;;10.60
12854;BMP180;6495;51.808;7.478;2023-02-13T17:38:01;103021.00;;;10.60
12854;BMP180;6495;51.808;7.478;2023-02-13T17:40:29;103019.00;;;10.50
12854;BMP180;6495;51.808;7.478;2023-02-13T17:42:58;103030.00;;;10.50